sensor_id;sensor_type;location;lat;lon;timestamp;P1;durP1;ratioP1;P2;durP2;ratioP2
45049;SDS011;61798;48.048;-1.928;2024-03-29T00:01:41;1.48;;;0.43;;
45049;SDS011;61798;48.048;-1.928;2024-03-29T00:03:49;0.40;;;0.40;;
45049;SDS011;61798;48.048;-1.928;2024-03-29T00:05:55;4.97;;;0.60;;
45049;SDS011;61798;48.048;-1.928;2024-03-29T00:08:01;6.72;;;1.80;;
45049;SDS011;61798;48.048;-1.928;2024-03-29T00:10:08;3.63;;;1.65;;
45049;SDS011;61798;48.048;-1.928;2024-03-29T00:12:14;11.57;;;4.90;;
45049;SDS011;61798;48.048;-1.928;2024-03-29T00:14:20;9.55;;;4.03;;
45049;SDS011;61798;48.048;-1.928;2024-03-29T00:16:26;9.68;;;4.65;;
45049;SDS011;61798;48.048;-1.928;2024-03-29T00:18:32;10.85;;;4.47;;
45049;SDS011;61798;48.048;-1.928;2024-03-29T00:20:38;8.45;;;4.10;;
45049;SDS011;61798;48.048;-1.928;2024-03-29T00:22:44;9.23;;;3.00;;
45049;SDS011;61798;48.048;-1.928;2024-03-29T00:24:50;7.22;;;3.97;;
45049;SDS011;61798;48.048;-1.928;2024-03-29T00:26:56;7.30;;;2.38;;
45049;SDS011;61798;48.048;-1.928;2024-03-29T00:29:02;5.63;;;1.75;;
45049;SDS011;61798;48.048;-1.928;2024-03-29T00:31:08;4.15;;;2.17;;
45049;SDS011;61798;48.048;-1.928;2024-03-29T00:33:14;3.38;;;1.10;;
45049;SDS011;61798;48.048;-1.928;2024-03-29T00:35:20;2.58;;;1.15;;
45049;SDS011;61798;48.048;-1.928;2024-03-29T00:37:28;1.38;;;0.90;;
45049;SDS011;61798;48.048;-1.928;2024-03-29T00:39:34;0.70;;;0.65;;
45049;SDS011;61798;48.048;-1.928;2024-03-29T00:41:39;0.55;;;0.50;;
45049;SDS011;61798;48.048;-1.928;2024-03-29T00:43:45;1.67;;;0.43;;
45049;SDS011;61798;48.048;-1.928;2024-03-29T00:45:51;0.73;;;0.50;;
45049;SDS011;61798;48.048;-1.928;2024-03-29T00:47:57;0.90;;;0.50;;
45049;SDS011;61798;48.048;-1.928;2024-03-29T00:50:03;2.47;;;0.43;;
45049;SDS011;61798;48.048;-1.928;2024-03-29T00:52:09;0.57;;;0.40;;
45049;SDS011;61798;48.048;-1.928;2024-03-29T00:54:15;1.45;;;0.43;;
45049;SDS011;61798;48.048;-1.928;2024-03-29T00:56:21;0.82;;;0.47;;
45049;SDS011;61798;48.048;-1.928;2024-03-29T00:58:27;3.88;;;0.68;;
45049;SDS011;61798;48.048;-1.928;2024-03-29T01:00:34;1.35;;;0.32;;
45049;SDS011;61798;48.048;-1.928;2024-03-29T01:02:40;1.25;;;0.60;;
45049;SDS011;61798;48.048;-1.928;2024-03-29T01:04:46;1.38;;;0.55;;
45049;SDS011;61798;48.048;-1.928;2024-03-29T01:06:52;3.30;;;0.77;;
45049;SDS011;61798;48.048;-1.928;2024-03-29T01:08:58;4.85;;;0.82;;
45049;SDS011;61798;48.048;-1.928;2024-03-29T01:11:04;3.75;;;1.00;;
45049;SDS011;61798;48.048;-1.928;2024-03-29T01:13:10;6.82;;;1.25;;
45049;SDS011;61798;48.048;-1.928;2024-03-29T01:15:15;2.70;;;1.15;;
45049;SDS011;61798;48.048;-1.928;2024-03-29T01:17:21;2.10;;;1.55;;
45049;SDS011;61798;48.048;-1.928;2024-03-29T01:19:27;5.20;;;1.92;;
45049;SDS011;61798;48.048;-1.928;2024-03-29T01:21:33;1.58;;;1.00;;
45049;SDS011;61798;48.048;-1.928;2024-03-29T01:23:39;1.83;;;0.95;;
45049;SDS011;61798;48.048;-1.928;2024-03-29T01:25:46;2.38;;;1.30;;
45049;SDS011;61798;48.048;-1.928;2024-03-29T01:27:51;0.70;;;0.70;;
45049;SDS011;61798;48.048;-1.928;2024-03-29T01:29:57;3.60;;;0.70;;
45049;SDS011;61798;48.048;-1.928;2024-03-29T01:32:03;1.88;;;0.60;;
45049;SDS011;61798;48.048;-1.928;2024-03-29T01:34:09;0.60;;;0.60;;
45049;SDS011;61798;48.048;-1.928;2024-03-29T01:36:15;1.65;;;0.82;;
45049;SDS011;61798;48.048;-1.928;2024-03-29T01:38:21;1.00;;;0.57;;
45049;SDS011;61798;48.048;-1.928;2024-03-29T01:40:28;1.35;;;0.55;;
45049;SDS011;61798;48.048;-1.928;2024-03-29T01:42:34;2.42;;;0.60;;
45049;SDS011;61798;48.048;-1.928;2024-03-29T01:44:40;2.80;;;0.60;;
45049;SDS011;61798;48.048;-1.928;2024-03-29T01:46:46;0.88;;;0.63;;
45049;SDS011;61798;48.048;-1.928;2024-03-29T01:48:53;2.45;;;0.65;;
45049;SDS011;61798;48.048;-1.928;2024-03-29T01:50:59;1.65;;;0.60;;
45049;SDS011;61798;48.048;-1.928;2024-03-29T01:53:06;1.85;;;0.80;;
45049;SDS011;61798;48.048;-1.928;2024-03-29T01:55:13;1.00;;;0.60;;
45049;SDS011;61798;48.048;-1.928;2024-03-29T01:57:19;2.00;;;0.55;;
45049;SDS011;61798;48.048;-1.928;2024-03-29T01:59:26;0.65;;;0.45;;
45049;SDS011;61798;48.048;-1.928;2024-03-29T02:01:34;1.45;;;0.50;;
45049;SDS011;61798;48.048;-1.928;2024-03-29T02:03:40;0.45;;;0.30;;
45049;SDS011;61798;48.048;-1.928;2024-03-29T02:05:47;3.42;;;0.80;;
45049;SDS011;61798;48.048;-1.928;2024-03-29T02:07:54;1.92;;;0.88;;
45049;SDS011;61798;48.048;-1.928;2024-03-29T02:10:00;3.50;;;0.60;;
45049;SDS011;61798;48.048;-1.928;2024-03-29T02:12:07;3.28;;;0.52;;
45049;SDS011;61798;48.048;-1.928;2024-03-29T02:14:13;0.98;;;0.80;;
45049;SDS011;61798;48.048;-1.928;2024-03-29T02:16:19;0.52;;;0.50;;
45049;SDS011;61798;48.048;-1.928;2024-03-29T02:18:24;1.55;;;0.60;;
45049;SDS011;61798;48.048;-1.928;2024-03-29T02:20:31;3.05;;;0.80;;
45049;SDS011;61798;48.048;-1.928;2024-03-29T02:22:40;6.93;;;0.80;;
45049;SDS011;61798;48.048;-1.928;2024-03-29T02:24:52;2.30;;;0.88;;
45049;SDS011;61798;48.048;-1.928;2024-03-29T02:27:00;2.50;;;0.47;;
45049;SDS011;61798;48.048;-1.928;2024-03-29T02:29:06;4.45;;;0.70;;
45049;SDS011;61798;48.048;-1.928;2024-03-29T02:31:12;2.83;;;0.88;;
45049;SDS011;61798;48.048;-1.928;2024-03-29T02:33:20;2.40;;;0.70;;
45049;SDS011;61798;48.048;-1.928;2024-03-29T02:35:26;2.17;;;0.70;;
45049;SDS011;61798;48.048;-1.928;2024-03-29T02:37:33;5.32;;;1.30;;
45049;SDS011;61798;48.048;-1.928;2024-03-29T02:39:40;1.30;;;0.85;;
45049;SDS011;61798;48.048;-1.928;2024-03-29T02:41:46;1.50;;;0.60;;
45049;SDS011;61798;48.048;-1.928;2024-03-29T02:43:51;0.82;;;0.30;;
45049;SDS011;61798;48.048;-1.928;2024-03-29T02:45:59;6.75;;;0.88;;
45049;SDS011;61798;48.048;-1.928;2024-03-29T02:48:05;1.45;;;0.40;;
45049;SDS011;61798;48.048;-1.928;2024-03-29T02:50:13;2.25;;;0.60;;
45049;SDS011;61798;48.048;-1.928;2024-03-29T02:52:20;0.73;;;0.40;;
45049;SDS011;61798;48.048;-1.928;2024-03-29T02:54:26;1.50;;;0.50;;
45049;SDS011;61798;48.048;-1.928;2024-03-29T02:56:34;2.40;;;0.45;;
45049;SDS011;61798;48.048;-1.928;2024-03-29T02:58:40;6.53;;;0.60;;
45049;SDS011;61798;48.048;-1.928;2024-03-29T03:00:46;1.02;;;0.43;;
45049;SDS011;61798;48.048;-1.928;2024-03-29T03:02:52;2.40;;;0.75;;
45049;SDS011;61798;48.048;-1.928;2024-03-29T03:04:57;0.45;;;0.45;;
45049;SDS011;61798;48.048;-1.928;2024-03-29T03:07:05;2.00;;;0.70;;
45049;SDS011;61798;48.048;-1.928;2024-03-29T03:09:29;0.75;;;0.45;;
45049;SDS011;61798;48.048;-1.928;2024-03-29T03:11:54;4.43;;;0.60;;
45049;SDS011;61798;48.048;-1.928;2024-03-29T03:13:59;2.20;;;0.40;;
45049;SDS011;61798;48.048;-1.928;2024-03-29T03:16:05;5.38;;;0.70;;
45049;SDS011;61798;48.048;-1.928;2024-03-29T03:18:12;0.88;;;0.57;;
45049;SDS011;61798;48.048;-1.928;2024-03-29T03:20:18;1.05;;;0.63;;
45049;SDS011;61798;48.048;-1.928;2024-03-29T03:22:25;1.15;;;0.30;;
45049;SDS011;61798;48.048;-1.928;2024-03-29T03:24:31;2.22;;;0.60;;
45049;SDS011;61798;48.048;-1.928;2024-03-29T03:26:37;3.63;;;0.70;;
45049;SDS011;61798;48.048;-1.928;2024-03-29T03:28:43;0.35;;;0.35;;
45049;SDS011;61798;48.048;-1.928;2024-03-29T03:30:49;3.50;;;0.43;;
45049;SDS011;61798;48.048;-1.928;2024-03-29T03:32:56;0.40;;;0.40;;
45049;SDS011;61798;48.048;-1.928;2024-03-29T03:35:02;3.22;;;0.60;;
45049;SDS011;61798;48.048;-1.928;2024-03-29T03:37:08;2.50;;;0.50;;
45049;SDS011;61798;48.048;-1.928;2024-03-29T03:39:13;0.65;;;0.40;;
45049;SDS011;61798;48.048;-1.928;2024-03-29T03:41:20;1.65;;;0.45;;
45049;SDS011;61798;48.048;-1.928;2024-03-29T03:43:26;3.72;;;0.50;;
45049;SDS011;61798;48.048;-1.928;2024-03-29T03:45:39;2.17;;;0.70;;
45049;SDS011;61798;48.048;-1.928;2024-03-29T03:47:45;4.15;;;1.23;;
45049;SDS011;61798;48.048;-1.928;2024-03-29T03:49:51;2.42;;;0.65;;
45049;SDS011;61798;48.048;-1.928;2024-03-29T03:51:57;2.80;;;0.70;;
45049;SDS011;61798;48.048;-1.928;2024-03-29T03:54:03;3.63;;;0.63;;
45049;SDS011;61798;48.048;-1.928;2024-03-29T03:56:09;0.65;;;0.52;;
45049;SDS011;61798;48.048;-1.928;2024-03-29T03:58:15;10.30;;;1.35;;
45049;SDS011;61798;48.048;-1.928;2024-03-29T04:00:21;2.05;;;0.90;;
45049;SDS011;61798;48.048;-1.928;2024-03-29T04:02:28;2.88;;;0.57;;
45049;SDS011;61798;48.048;-1.928;2024-03-29T04:04:34;1.23;;;0.80;;
45049;SDS011;61798;48.048;-1.928;2024-03-29T04:06:40;1.98;;;0.45;;
45049;SDS011;61798;48.048;-1.928;2024-03-29T04:08:46;1.70;;;0.70;;
45049;SDS011;61798;48.048;-1.928;2024-03-29T04:10:52;6.45;;;0.88;;
45049;SDS011;61798;48.048;-1.928;2024-03-29T04:12:58;3.58;;;1.00;;
45049;SDS011;61798;48.048;-1.928;2024-03-29T04:15:05;3.72;;;0.85;;
45049;SDS011;61798;48.048;-1.928;2024-03-29T04:17:11;5.03;;;1.00;;
45049;SDS011;61798;48.048;-1.928;2024-03-29T04:19:17;2.13;;;1.00;;
45049;SDS011;61798;48.048;-1.928;2024-03-29T04:21:23;1.75;;;1.00;;
45049;SDS011;61798;48.048;-1.928;2024-03-29T04:23:29;9.73;;;1.40;;
45049;SDS011;61798;48.048;-1.928;2024-03-29T04:25:36;5.30;;;1.00;;
45049;SDS011;61798;48.048;-1.928;2024-03-29T04:27:41;1.17;;;0.88;;
45049;SDS011;61798;48.048;-1.928;2024-03-29T04:29:50;3.33;;;1.17;;
45049;SDS011;61798;48.048;-1.928;2024-03-29T04:31:57;1.85;;;0.98;;
45049;SDS011;61798;48.048;-1.928;2024-03-29T04:34:03;4.07;;;1.35;;
45049;SDS011;61798;48.048;-1.928;2024-03-29T04:36:09;2.33;;;1.10;;
45049;SDS011;61798;48.048;-1.928;2024-03-29T04:38:15;4.85;;;1.35;;
45049;SDS011;61798;48.048;-1.928;2024-03-29T04:40:20;1.67;;;1.08;;
45049;SDS011;61798;48.048;-1.928;2024-03-29T04:42:26;2.42;;;1.00;;
45049;SDS011;61798;48.048;-1.928;2024-03-29T04:44:32;3.88;;;1.05;;
45049;SDS011;61798;48.048;-1.928;2024-03-29T04:46:38;5.75;;;1.27;;
45049;SDS011;61798;48.048;-1.928;2024-03-29T04:48:44;5.45;;;1.50;;
45049;SDS011;61798;48.048;-1.928;2024-03-29T04:50:51;5.57;;;1.15;;
45049;SDS011;61798;48.048;-1.928;2024-03-29T04:52:57;2.25;;;1.00;;
45049;SDS011;61798;48.048;-1.928;2024-03-29T04:55:03;6.13;;;1.10;;
45049;SDS011;61798;48.048;-1.928;2024-03-29T04:57:09;5.25;;;0.93;;
45049;SDS011;61798;48.048;-1.928;2024-03-29T04:59:15;2.28;;;0.90;;
45049;SDS011;61798;48.048;-1.928;2024-03-29T05:01:22;3.58;;;0.82;;
45049;SDS011;61798;48.048;-1.928;2024-03-29T05:03:28;1.15;;;0.60;;
45049;SDS011;61798;48.048;-1.928;2024-03-29T05:05:34;4.68;;;0.85;;
45049;SDS011;61798;48.048;-1.928;2024-03-29T05:07:40;3.60;;;0.77;;
45049;SDS011;61798;48.048;-1.928;2024-03-29T05:09:46;4.30;;;1.30;;
45049;SDS011;61798;48.048;-1.928;2024-03-29T05:11:53;5.13;;;0.90;;
45049;SDS011;61798;48.048;-1.928;2024-03-29T05:13:58;1.52;;;0.68;;
45049;SDS011;61798;48.048;-1.928;2024-03-29T05:16:07;3.08;;;0.73;;
45049;SDS011;61798;48.048;-1.928;2024-03-29T05:18:13;8.30;;;1.17;;
45049;SDS011;61798;48.048;-1.928;2024-03-29T05:20:19;3.78;;;0.55;;
45049;SDS011;61798;48.048;-1.928;2024-03-29T05:22:25;2.92;;;0.70;;
45049;SDS011;61798;48.048;-1.928;2024-03-29T05:24:31;5.57;;;0.85;;
45049;SDS011;61798;48.048;-1.928;2024-03-29T05:26:37;7.10;;;1.13;;
45049;SDS011;61798;48.048;-1.928;2024-03-29T05:28:43;4.05;;;0.90;;
45049;SDS011;61798;48.048;-1.928;2024-03-29T05:30:50;4.07;;;0.77;;
45049;SDS011;61798;48.048;-1.928;2024-03-29T05:32:55;3.40;;;0.70;;
45049;SDS011;61798;48.048;-1.928;2024-03-29T05:35:01;2.25;;;0.88;;
45049;SDS011;61798;48.048;-1.928;2024-03-29T05:37:07;2.28;;;1.10;;
45049;SDS011;61798;48.048;-1.928;2024-03-29T05:39:13;7.07;;;1.02;;
45049;SDS011;61798;48.048;-1.928;2024-03-29T05:41:21;5.25;;;0.98;;
45049;SDS011;61798;48.048;-1.928;2024-03-29T05:43:27;2.97;;;0.90;;
45049;SDS011;61798;48.048;-1.928;2024-03-29T05:45:33;3.30;;;1.02;;
45049;SDS011;61798;48.048;-1.928;2024-03-29T05:47:39;5.65;;;0.60;;
45049;SDS011;61798;48.048;-1.928;2024-03-29T05:49:45;7.72;;;1.20;;
45049;SDS011;61798;48.048;-1.928;2024-03-29T05:51:51;3.75;;;0.85;;
45049;SDS011;61798;48.048;-1.928;2024-03-29T05:53:57;5.07;;;0.77;;
45049;SDS011;61798;48.048;-1.928;2024-03-29T05:56:03;6.57;;;1.98;;
45049;SDS011;61798;48.048;-1.928;2024-03-29T05:58:10;3.60;;;1.20;;
45049;SDS011;61798;48.048;-1.928;2024-03-29T06:00:16;5.22;;;0.90;;
45049;SDS011;61798;48.048;-1.928;2024-03-29T06:02:22;6.95;;;0.82;;
45049;SDS011;61798;48.048;-1.928;2024-03-29T06:04:28;5.00;;;1.00;;
45049;SDS011;61798;48.048;-1.928;2024-03-29T06:06:38;6.43;;;1.48;;
45049;SDS011;61798;48.048;-1.928;2024-03-29T06:08:43;4.28;;;1.08;;
45049;SDS011;61798;48.048;-1.928;2024-03-29T06:10:49;5.18;;;0.70;;
45049;SDS011;61798;48.048;-1.928;2024-03-29T06:12:55;6.82;;;0.95;;
45049;SDS011;61798;48.048;-1.928;2024-03-29T06:15:01;8.43;;;1.10;;
45049;SDS011;61798;48.048;-1.928;2024-03-29T06:17:26;4.68;;;0.80;;
45049;SDS011;61798;48.048;-1.928;2024-03-29T06:19:32;7.18;;;1.50;;
45049;SDS011;61798;48.048;-1.928;2024-03-29T06:21:38;6.82;;;1.10;;
45049;SDS011;61798;48.048;-1.928;2024-03-29T06:23:44;4.38;;;0.88;;
45049;SDS011;61798;48.048;-1.928;2024-03-29T06:25:50;6.53;;;1.20;;
45049;SDS011;61798;48.048;-1.928;2024-03-29T06:27:56;3.33;;;1.30;;
45049;SDS011;61798;48.048;-1.928;2024-03-29T06:30:02;5.97;;;1.30;;
45049;SDS011;61798;48.048;-1.928;2024-03-29T06:32:10;2.53;;;0.80;;
45049;SDS011;61798;48.048;-1.928;2024-03-29T06:34:16;4.25;;;0.90;;
45049;SDS011;61798;48.048;-1.928;2024-03-29T06:36:22;6.75;;;1.50;;
45049;SDS011;61798;48.048;-1.928;2024-03-29T06:38:28;3.63;;;1.08;;
45049;SDS011;61798;48.048;-1.928;2024-03-29T06:40:34;8.85;;;1.60;;
45049;SDS011;61798;48.048;-1.928;2024-03-29T06:42:40;11.48;;;1.88;;
45049;SDS011;61798;48.048;-1.928;2024-03-29T06:44:46;9.13;;;1.50;;
45049;SDS011;61798;48.048;-1.928;2024-03-29T06:46:52;5.53;;;1.58;;
45049;SDS011;61798;48.048;-1.928;2024-03-29T06:48:58;10.75;;;0.98;;
45049;SDS011;61798;48.048;-1.928;2024-03-29T06:51:04;7.15;;;1.50;;
45049;SDS011;61798;48.048;-1.928;2024-03-29T06:53:10;8.18;;;1.05;;
45049;SDS011;61798;48.048;-1.928;2024-03-29T06:55:16;7.20;;;1.48;;
45049;SDS011;61798;48.048;-1.928;2024-03-29T06:57:22;5.78;;;1.30;;
45049;SDS011;61798;48.048;-1.928;2024-03-29T06:59:30;2.55;;;1.25;;
45049;SDS011;61798;48.048;-1.928;2024-03-29T07:01:36;5.72;;;1.20;;
45049;SDS011;61798;48.048;-1.928;2024-03-29T07:03:42;4.57;;;1.10;;
45049;SDS011;61798;48.048;-1.928;2024-03-29T07:05:48;3.58;;;0.93;;
45049;SDS011;61798;48.048;-1.928;2024-03-29T07:07:54;1.67;;;0.55;;
45049;SDS011;61798;48.048;-1.928;2024-03-29T07:10:01;7.03;;;3.10;;
45049;SDS011;61798;48.048;-1.928;2024-03-29T07:12:07;14.10;;;5.60;;
45049;SDS011;61798;48.048;-1.928;2024-03-29T07:14:17;14.75;;;5.72;;
45049;SDS011;61798;48.048;-1.928;2024-03-29T07:16:24;11.88;;;4.38;;
45049;SDS011;61798;48.048;-1.928;2024-03-29T07:18:30;14.55;;;5.45;;
45049;SDS011;61798;48.048;-1.928;2024-03-29T07:20:36;13.73;;;5.20;;
45049;SDS011;61798;48.048;-1.928;2024-03-29T07:22:42;12.95;;;5.45;;
45049;SDS011;61798;48.048;-1.928;2024-03-29T07:24:48;13.73;;;5.40;;
45049;SDS011;61798;48.048;-1.928;2024-03-29T07:26:54;11.48;;;3.78;;
45049;SDS011;61798;48.048;-1.928;2024-03-29T07:29:00;8.13;;;3.40;;
45049;SDS011;61798;48.048;-1.928;2024-03-29T07:31:06;6.18;;;2.00;;
45049;SDS011;61798;48.048;-1.928;2024-03-29T07:33:13;2.67;;;1.92;;
45049;SDS011;61798;48.048;-1.928;2024-03-29T07:35:20;2.80;;;1.40;;
45049;SDS011;61798;48.048;-1.928;2024-03-29T07:37:27;5.38;;;2.20;;
45049;SDS011;61798;48.048;-1.928;2024-03-29T07:39:33;8.48;;;2.38;;
45049;SDS011;61798;48.048;-1.928;2024-03-29T07:41:39;3.45;;;1.77;;
45049;SDS011;61798;48.048;-1.928;2024-03-29T07:43:51;2.15;;;1.38;;
45049;SDS011;61798;48.048;-1.928;2024-03-29T07:46:01;5.35;;;1.35;;
45049;SDS011;61798;48.048;-1.928;2024-03-29T07:48:11;2.45;;;1.10;;
45049;SDS011;61798;48.048;-1.928;2024-03-29T07:50:18;6.70;;;1.10;;
45049;SDS011;61798;48.048;-1.928;2024-03-29T07:52:24;4.28;;;1.00;;
45049;SDS011;61798;48.048;-1.928;2024-03-29T07:54:31;3.55;;;1.00;;
45049;SDS011;61798;48.048;-1.928;2024-03-29T07:56:38;5.97;;;1.33;;
45049;SDS011;61798;48.048;-1.928;2024-03-29T07:58:43;4.78;;;1.13;;
45049;SDS011;61798;48.048;-1.928;2024-03-29T08:00:49;2.97;;;1.30;;
45049;SDS011;61798;48.048;-1.928;2024-03-29T08:02:56;4.22;;;1.00;;
45049;SDS011;61798;48.048;-1.928;2024-03-29T08:05:02;2.70;;;0.93;;
45049;SDS011;61798;48.048;-1.928;2024-03-29T08:07:08;7.93;;;1.15;;
45049;SDS011;61798;48.048;-1.928;2024-03-29T08:09:14;6.63;;;1.45;;
45049;SDS011;61798;48.048;-1.928;2024-03-29T08:11:21;3.90;;;0.98;;
45049;SDS011;61798;48.048;-1.928;2024-03-29T08:13:27;6.47;;;0.90;;
45049;SDS011;61798;48.048;-1.928;2024-03-29T08:15:33;3.22;;;0.90;;
45049;SDS011;61798;48.048;-1.928;2024-03-29T08:17:39;6.75;;;1.27;;
45049;SDS011;61798;48.048;-1.928;2024-03-29T08:19:45;4.28;;;0.82;;
45049;SDS011;61798;48.048;-1.928;2024-03-29T08:21:53;7.78;;;1.00;;
45049;SDS011;61798;48.048;-1.928;2024-03-29T08:23:59;6.07;;;0.82;;
45049;SDS011;61798;48.048;-1.928;2024-03-29T08:26:06;4.90;;;1.05;;
45049;SDS011;61798;48.048;-1.928;2024-03-29T08:28:13;6.68;;;1.05;;
45049;SDS011;61798;48.048;-1.928;2024-03-29T08:30:19;4.10;;;0.88;;
45049;SDS011;61798;48.048;-1.928;2024-03-29T08:32:24;6.53;;;1.30;;
45049;SDS011;61798;48.048;-1.928;2024-03-29T08:34:31;3.55;;;1.00;;
45049;SDS011;61798;48.048;-1.928;2024-03-29T08:36:40;20.30;;;1.27;;
45049;SDS011;61798;48.048;-1.928;2024-03-29T08:38:46;3.92;;;1.10;;
45049;SDS011;61798;48.048;-1.928;2024-03-29T08:40:52;8.38;;;0.80;;
45049;SDS011;61798;48.048;-1.928;2024-03-29T08:42:58;2.05;;;1.00;;
45049;SDS011;61798;48.048;-1.928;2024-03-29T08:45:04;6.43;;;1.05;;
45049;SDS011;61798;48.048;-1.928;2024-03-29T08:47:13;6.18;;;1.13;;
45049;SDS011;61798;48.048;-1.928;2024-03-29T08:49:19;4.93;;;0.98;;
45049;SDS011;61798;48.048;-1.928;2024-03-29T08:51:25;1.40;;;0.70;;
45049;SDS011;61798;48.048;-1.928;2024-03-29T08:53:31;8.88;;;1.15;;
45049;SDS011;61798;48.048;-1.928;2024-03-29T08:55:36;3.65;;;0.60;;
45049;SDS011;61798;48.048;-1.928;2024-03-29T08:57:44;3.08;;;0.77;;
45049;SDS011;61798;48.048;-1.928;2024-03-29T08:59:50;2.53;;;0.75;;
45049;SDS011;61798;48.048;-1.928;2024-03-29T09:02:03;6.68;;;1.00;;
45049;SDS011;61798;48.048;-1.928;2024-03-29T09:04:10;5.22;;;1.38;;
45049;SDS011;61798;48.048;-1.928;2024-03-29T09:06:19;4.78;;;1.10;;
45049;SDS011;61798;48.048;-1.928;2024-03-29T09:08:25;7.50;;;1.20;;
45049;SDS011;61798;48.048;-1.928;2024-03-29T09:10:31;3.72;;;0.73;;
45049;SDS011;61798;48.048;-1.928;2024-03-29T09:12:37;2.80;;;0.65;;
45049;SDS011;61798;48.048;-1.928;2024-03-29T09:14:44;6.72;;;1.25;;
45049;SDS011;61798;48.048;-1.928;2024-03-29T09:16:50;4.53;;;0.70;;
45049;SDS011;61798;48.048;-1.928;2024-03-29T09:18:57;3.78;;;0.70;;
45049;SDS011;61798;48.048;-1.928;2024-03-29T09:21:03;2.58;;;1.02;;
45049;SDS011;61798;48.048;-1.928;2024-03-29T09:23:09;3.78;;;0.98;;
45049;SDS011;61798;48.048;-1.928;2024-03-29T09:25:15;2.53;;;1.00;;
45049;SDS011;61798;48.048;-1.928;2024-03-29T09:27:21;2.75;;;0.68;;
45049;SDS011;61798;48.048;-1.928;2024-03-29T09:29:27;5.07;;;1.00;;
45049;SDS011;61798;48.048;-1.928;2024-03-29T09:31:33;1.60;;;0.88;;
45049;SDS011;61798;48.048;-1.928;2024-03-29T09:33:39;6.63;;;1.10;;
45049;SDS011;61798;48.048;-1.928;2024-03-29T09:35:45;4.25;;;0.88;;
45049;SDS011;61798;48.048;-1.928;2024-03-29T09:37:52;7.60;;;1.08;;
45049;SDS011;61798;48.048;-1.928;2024-03-29T09:39:58;8.52;;;1.55;;
45049;SDS011;61798;48.048;-1.928;2024-03-29T09:42:11;5.80;;;1.60;;
45049;SDS011;61798;48.048;-1.928;2024-03-29T09:44:21;6.32;;;1.13;;
45049;SDS011;61798;48.048;-1.928;2024-03-29T09:46:29;7.70;;;2.17;;
45049;SDS011;61798;48.048;-1.928;2024-03-29T09:48:39;7.82;;;1.40;;
45049;SDS011;61798;48.048;-1.928;2024-03-29T09:50:46;7.93;;;1.80;;
45049;SDS011;61798;48.048;-1.928;2024-03-29T09:52:53;15.07;;;1.92;;
45049;SDS011;61798;48.048;-1.928;2024-03-29T09:55:00;10.65;;;1.88;;
45049;SDS011;61798;48.048;-1.928;2024-03-29T09:57:07;5.57;;;1.48;;
45049;SDS011;61798;48.048;-1.928;2024-03-29T09:59:15;9.45;;;1.77;;
45049;SDS011;61798;48.048;-1.928;2024-03-29T10:01:21;7.78;;;1.10;;
45049;SDS011;61798;48.048;-1.928;2024-03-29T10:03:27;4.20;;;1.08;;
45049;SDS011;61798;48.048;-1.928;2024-03-29T10:05:36;7.55;;;1.70;;
45049;SDS011;61798;48.048;-1.928;2024-03-29T10:07:42;6.97;;;1.27;;
45049;SDS011;61798;48.048;-1.928;2024-03-29T10:09:50;6.88;;;1.83;;
45049;SDS011;61798;48.048;-1.928;2024-03-29T10:11:56;8.55;;;2.42;;
45049;SDS011;61798;48.048;-1.928;2024-03-29T10:14:02;7.95;;;2.33;;
45049;SDS011;61798;48.048;-1.928;2024-03-29T10:16:09;5.38;;;1.45;;
45049;SDS011;61798;48.048;-1.928;2024-03-29T10:18:16;4.45;;;1.45;;
45049;SDS011;61798;48.048;-1.928;2024-03-29T10:20:25;3.83;;;1.52;;
45049;SDS011;61798;48.048;-1.928;2024-03-29T10:22:36;2.45;;;0.47;;
45049;SDS011;61798;48.048;-1.928;2024-03-29T10:24:46;1.23;;;0.70;;
45049;SDS011;61798;48.048;-1.928;2024-03-29T10:26:52;1.92;;;0.70;;
45049;SDS011;61798;48.048;-1.928;2024-03-29T10:28:58;2.20;;;0.70;;
45049;SDS011;61798;48.048;-1.928;2024-03-29T10:31:06;0.63;;;0.47;;
45049;SDS011;61798;48.048;-1.928;2024-03-29T10:33:12;0.63;;;0.43;;
45049;SDS011;61798;48.048;-1.928;2024-03-29T10:35:18;0.50;;;0.40;;
45049;SDS011;61798;48.048;-1.928;2024-03-29T10:37:25;1.40;;;0.50;;
45049;SDS011;61798;48.048;-1.928;2024-03-29T10:39:34;2.10;;;0.60;;
45049;SDS011;61798;48.048;-1.928;2024-03-29T10:41:41;3.08;;;0.73;;
45049;SDS011;61798;48.048;-1.928;2024-03-29T10:43:51;1.63;;;0.50;;
45049;SDS011;61798;48.048;-1.928;2024-03-29T10:46:00;3.13;;;0.63;;
45049;SDS011;61798;48.048;-1.928;2024-03-29T10:48:07;3.47;;;0.90;;
45049;SDS011;61798;48.048;-1.928;2024-03-29T10:50:15;1.23;;;0.60;;
45049;SDS011;61798;48.048;-1.928;2024-03-29T10:52:25;2.47;;;0.68;;
45049;SDS011;61798;48.048;-1.928;2024-03-29T10:54:32;4.68;;;0.77;;
45049;SDS011;61798;48.048;-1.928;2024-03-29T10:56:42;6.03;;;0.73;;
45049;SDS011;61798;48.048;-1.928;2024-03-29T10:58:50;7.72;;;0.60;;
45049;SDS011;61798;48.048;-1.928;2024-03-29T11:01:03;0.90;;;0.60;;
45049;SDS011;61798;48.048;-1.928;2024-03-29T11:03:17;1.13;;;0.60;;
45049;SDS011;61798;48.048;-1.928;2024-03-29T11:05:26;4.30;;;1.48;;
45049;SDS011;61798;48.048;-1.928;2024-03-29T11:07:37;2.88;;;0.80;;
45049;SDS011;61798;48.048;-1.928;2024-03-29T11:09:49;4.70;;;0.50;;
45049;SDS011;61798;48.048;-1.928;2024-03-29T11:11:58;5.43;;;1.02;;
45049;SDS011;61798;48.048;-1.928;2024-03-29T11:14:14;3.33;;;0.88;;
45049;SDS011;61798;48.048;-1.928;2024-03-29T11:16:24;7.18;;;0.80;;
45049;SDS011;61798;48.048;-1.928;2024-03-29T11:18:31;5.53;;;0.85;;
45049;SDS011;61798;48.048;-1.928;2024-03-29T11:20:37;4.82;;;1.02;;
45049;SDS011;61798;48.048;-1.928;2024-03-29T11:22:46;1.95;;;0.60;;
45049;SDS011;61798;48.048;-1.928;2024-03-29T11:24:54;4.95;;;0.88;;
45049;SDS011;61798;48.048;-1.928;2024-03-29T11:27:09;11.45;;;1.77;;
45049;SDS011;61798;48.048;-1.928;2024-03-29T11:29:19;5.57;;;1.00;;
45049;SDS011;61798;48.048;-1.928;2024-03-29T11:31:29;5.85;;;1.52;;
45049;SDS011;61798;48.048;-1.928;2024-03-29T11:35:50;5.68;;;1.02;;
45049;SDS011;61798;48.048;-1.928;2024-03-29T11:37:58;3.25;;;0.80;;
45049;SDS011;61798;48.048;-1.928;2024-03-29T11:40:10;1.85;;;0.65;;
45049;SDS011;61798;48.048;-1.928;2024-03-29T11:42:19;3.97;;;0.70;;
45049;SDS011;61798;48.048;-1.928;2024-03-29T11:44:40;5.30;;;0.80;;
45049;SDS011;61798;48.048;-1.928;2024-03-29T11:46:46;9.88;;;1.88;;
45049;SDS011;61798;48.048;-1.928;2024-03-29T11:48:53;3.95;;;0.88;;
45049;SDS011;61798;48.048;-1.928;2024-03-29T11:50:59;6.75;;;1.25;;
45049;SDS011;61798;48.048;-1.928;2024-03-29T11:53:06;2.13;;;0.60;;
45049;SDS011;61798;48.048;-1.928;2024-03-29T11:55:12;5.53;;;1.13;;
45049;SDS011;61798;48.048;-1.928;2024-03-29T11:57:18;9.27;;;0.82;;
45049;SDS011;61798;48.048;-1.928;2024-03-29T11:59:23;4.88;;;0.90;;
45049;SDS011;61798;48.048;-1.928;2024-03-29T12:01:31;7.30;;;1.33;;
45049;SDS011;61798;48.048;-1.928;2024-03-29T12:03:39;8.63;;;1.42;;
45049;SDS011;61798;48.048;-1.928;2024-03-29T12:05:45;4.88;;;1.00;;
45049;SDS011;61798;48.048;-1.928;2024-03-29T12:07:52;5.03;;;1.02;;
45049;SDS011;61798;48.048;-1.928;2024-03-29T12:09:58;5.57;;;0.60;;
45049;SDS011;61798;48.048;-1.928;2024-03-29T12:12:05;3.38;;;0.65;;
45049;SDS011;61798;48.048;-1.928;2024-03-29T12:14:15;9.60;;;1.30;;
45049;SDS011;61798;48.048;-1.928;2024-03-29T12:16:22;5.50;;;0.93;;
45049;SDS011;61798;48.048;-1.928;2024-03-29T12:18:28;3.00;;;0.75;;
45049;SDS011;61798;48.048;-1.928;2024-03-29T12:20:37;2.17;;;0.75;;
45049;SDS011;61798;48.048;-1.928;2024-03-29T12:22:44;7.35;;;1.15;;
45049;SDS011;61798;48.048;-1.928;2024-03-29T12:24:50;4.20;;;1.15;;
45049;SDS011;61798;48.048;-1.928;2024-03-29T12:26:55;4.43;;;1.20;;
45049;SDS011;61798;48.048;-1.928;2024-03-29T12:29:02;5.75;;;0.85;;
45049;SDS011;61798;48.048;-1.928;2024-03-29T12:31:09;4.00;;;0.82;;
45049;SDS011;61798;48.048;-1.928;2024-03-29T12:33:15;8.20;;;1.00;;
45049;SDS011;61798;48.048;-1.928;2024-03-29T12:35:26;11.68;;;1.33;;